Time;durP1;ratioP1;P1;durP2;ratioP2;P2;SDS_P1;SDS_P2;PMS_P1;PMS_P2;Temp;Humidity;BMP_temperature;BMP_pressure;BME280_temperature;BME280_humidity;BME280_pressure;Samples;Min_cycle;Max_cycle;Signal;HPM_P1;HPM_P2
2021/01/27 00:00:11;;;;;;;60.80;33.63;;;;;;;-2.08;100.00;98561.59;2088089;28;20234;-76
2021/01/27 00:01:12;;;;;;;65.22;33.75;;;;;;;-2.14;100.00;98547.59;2087559;28;20545;-76
2021/01/27 00:02:13;;;;;;;77.47;37.47;;;;;;;-2.10;100.00;98568.84;2079846;28;20211;-76
2021/01/27 00:03:15;;;;;;;65.90;35.67;;;;;;;-2.12;100.00;98561.22;2079850;28;20227;-76
2021/01/27 00:04:19;;;;;;;70.45;36.20;;;;;;;-2.10;100.00;98571.44;2080310;28;20286;-77
2021/01/27 00:05:23;;;;;;;64.97;35.40;;;;;;;-2.10;100.00;98558.38;2080113;28;20306;-76
2021/01/27 00:06:24;;;;;;;71.22;34.85;;;;;;;-2.12;100.00;98574.28;2080385;28;20279;-76
2021/01/27 00:07:25;;;;;;;72.20;36.05;;;;;;;-2.04;100.00;98573.16;2080581;28;20285;-76
2021/01/27 00:08:27;;;;;;;74.70;36.57;;;;;;;-2.11;100.00;98565.44;2080678;28;20266;-76
2021/01/27 00:09:28;;;;;;;76.07;37.05;;;;;;;-2.10;100.00;98568.84;2080761;28;20246;-75
2021/01/27 00:10:30;;;;;;;69.95;37.90;;;;;;;-2.10;100.00;98574.06;2080569;28;20227;-75
2021/01/27 00:11:31;;;;;;;77.88;38.42;;;;;;;-2.08;100.00;98574.66;2079942;28;20310;-76
2021/01/27 00:12:33;;;;;;;65.93;36.27;;;;;;;-2.07;100.00;98568.41;2071370;28;20220;-76
2021/01/27 00:13:33;;;;;;;74.70;36.65;;;;;;;-2.03;100.00;98566.91;2088193;28;20223;-75
2021/01/27 00:14:35;;;;;;;73.23;36.27;;;;;;;-2.01;100.00;98577.94;2096461;28;20684;-75
2021/01/27 00:15:38;;;;;;;70.55;35.63;;;;;;;-2.01;100.00;98565.66;2080480;28;20702;-76
2021/01/27 00:16:39;;;;;;;65.53;36.33;;;;;;;-2.06;100.00;98570.78;2095714;28;20233;-75
2021/01/27 00:17:40;;;;;;;69.68;36.88;;;;;;;-2.07;100.00;98576.25;2096231;28;20242;-75
2021/01/27 00:18:41;;;;;;;76.88;39.15;;;;;;;-1.98;100.00;98561.81;2079588;28;20231;-75
2021/01/27 00:19:43;;;;;;;75.80;38.42;;;;;;;-2.03;100.00;98566.91;2071801;28;20293;-75
2021/01/27 00:20:45;;;;;;;68.93;37.95;;;;;;;-1.94;100.00;98562.94;2080125;28;20246;-75
2021/01/27 00:21:46;;;;;;;73.68;38.67;;;;;;;-2.03;100.00;98557.25;2096103;28;20811;-75
2021/01/27 00:22:47;;;;;;;72.30;37.50;;;;;;;-2.06;100.00;98564.78;2096395;28;20589;-75
2021/01/27 00:23:48;;;;;;;71.07;39.20;;;;;;;-2.04;100.00;98557.50;2079665;28;20307;-75
2021/01/27 00:24:49;;;;;;;76.40;38.37;;;;;;;-2.08;100.00;98557.16;2079704;28;20215;-75
2021/01/27 00:25:50;;;;;;;69.93;36.85;;;;;;;-2.11;100.00;98551.56;2079797;28;20219;-75
2021/01/27 00:26:52;;;;;;;82.00;40.35;;;;;;;-2.14;100.00;98549.41;2079906;28;20231;-75
2021/01/27 00:27:53;;;;;;;72.82;38.10;;;;;;;-2.23;100.00;98563.84;2080477;28;20306;-75
2021/01/27 00:28:54;;;;;;;71.78;36.60;;;;;;;-2.20;100.00;98558.94;2079996;28;20262;-75
2021/01/27 00:29:55;;;;;;;76.72;37.22;;;;;;;-2.25;100.00;98550.22;2071483;28;20221;-75
2021/01/27 00:30:56;;;;;;;77.90;36.57;;;;;;;-2.32;100.00;98543.25;2079791;28;20219;-75
2021/01/27 00:31:57;;;;;;;69.50;37.33;;;;;;;-2.16;100.00;98570.56;2079691;28;20231;-75
2021/01/27 00:32:59;;;;;;;71.33;38.67;;;;;;;-2.15;100.00;98558.28;2079565;28;20223;-75
2021/01/27 00:34:00;;;;;;;68.97;36.03;;;;;;;-2.18;100.00;98562.13;2080365;28;20596;-75
2021/01/27 00:35:02;;;;;;;76.43;38.77;;;;;;;-2.14;100.00;98552.03;2079567;28;20310;-75
2021/01/27 00:36:04;;;;;;;80.97;40.42;;;;;;;-2.21;100.00;98554.75;2071631;28;20307;-75
2021/01/27 00:37:05;;;;;;;72.93;36.65;;;;;;;-2.21;100.00;98556.56;2079619;28;20268;-75
2021/01/27 00:38:10;;;;;;;73.65;35.90;;;;;;;-2.20;100.00;98555.53;2079612;28;20319;-75
2021/01/27 00:39:11;;;;;;;71.47;36.13;;;;;;;-2.19;100.00;98550.09;2079362;28;20784;-75
2021/01/27 00:40:13;;;;;;;76.10;36.42;;;;;;;-2.17;100.00;98547.25;2079285;28;20583;-75
2021/01/27 00:41:15;;;;;;;72.85;36.03;;;;;;;-2.30;100.00;98537.81;2079491;28;20223;-74
2021/01/27 00:42:16;;;;;;;71.60;34.85;;;;;;;-2.20;100.00;98563.38;2079661;28;20230;-74
2021/01/27 00:43:17;;;;;;;69.83;37.67;;;;;;;-2.23;100.00;98554.19;2080359;28;20257;-76
2021/01/27 00:44:18;;;;;;;74.25;36.55;;;;;;;-2.27;100.00;98551.22;2080505;28;20219;-75
2021/01/27 00:45:20;;;;;;;68.40;35.85;;;;;;;-2.38;100.00;98538.94;2080392;28;20735;-76
2021/01/27 00:46:21;;;;;;;75.30;36.33;;;;;;;-2.39;100.00;98547.78;2077588;28;20219;-76
2021/01/27 00:47:22;;;;;;;74.90;36.90;;;;;;;-2.39;100.00;98549.63;2077300;28;20303;-76
2021/01/27 00:48:23;;;;;;;69.30;36.85;;;;;;;-2.48;100.00;98538.69;2079444;28;20227;-76
2021/01/27 00:49:25;;;;;;;76.13;38.00;;;;;;;-2.52;100.00;98537.53;2079813;28;20223;-76
2021/01/27 00:50:27;;;;;;;78.32;37.50;;;;;;;-2.48;100.00;98545.72;2079526;28;20720;-76
2021/01/27 00:51:28;;;;;;;65.05;34.22;;;;;;;-2.46;100.00;98548.91;2079789;28;20219;-76
2021/01/27 00:52:29;;;;;;;71.50;36.25;;;;;;;-2.50;100.00;98538.13;2079585;28;20677;-76
2021/01/27 00:53:30;;;;;;;68.05;35.40;;;;;;;-2.52;100.00;98542.75;2071518;28;20223;-76
2021/01/27 00:54:31;;;;;;;69.20;37.05;;;;;;;-2.52;100.00;98539.34;2071529;28;20227;-76
2021/01/27 00:55:33;;;;;;;75.87;36.07;;;;;;;-2.54;100.00;98542.19;2071613;28;20240;-76
2021/01/27 00:56:34;;;;;;;64.78;36.25;;;;;;;-2.51;100.00;98539.16;2071874;28;20326;-76
2021/01/27 00:57:36;;;;;;;69.03;36.73;;;;;;;-2.48;100.00;98551.75;2079576;28;20252;-76
2021/01/27 00:58:36;;;;;;;63.40;34.75;;;;;;;-2.47;100.00;98548.13;2077460;28;20310;-76
2021/01/27 00:59:49;;;;;;;68.60;36.35;;;;;;;-2.49;100.00;98542.31;2089147;28;20229;-75
2021/01/27 01:00:50;;;;;;;65.97;34.03;;;;;;;-2.48;100.00;98543.91;2095695;28;20618;-75
2021/01/27 01:01:58;;;;;;;61.67;35.20;;;;;;;-2.46;100.00;98544.47;2078898;28;20253;-76
2021/01/27 01:03:12;;;;;;;70.28;36.92;;;;;;;-2.41;100.00;98536.00;2079152;28;20237;-75
2021/01/27 01:04:14;;;;;;;69.93;35.43;;;;;;;-2.40;100.00;98551.44;2079302;28;20219;-75
2021/01/27 01:05:17;;;;;;;65.13;36.05;;;;;;;-2.38;100.00;98544.16;2071292;28;20602;-75
2021/01/27 01:06:19;;;;;;;65.20;35.00;;;;;;;-2.41;100.00;98536.78;2079623;28;20550;-74
2021/01/27 01:07:20;;;;;;;69.63;35.28;;;;;;;-2.44;100.00;98539.81;2080341;28;20223;-74
2021/01/27 01:08:21;;;;;;;71.97;36.30;;;;;;;-2.41;100.00;98539.38;2079552;28;20230;-75
2021/01/27 01:09:22;;;;;;;70.15;36.35;;;;;;;-2.44;100.00;98537.22;2077175;28;20311;-75
2021/01/27 01:10:25;;;;;;;64.57;35.60;;;;;;;-2.34;100.00;98539.28;2080069;28;20234;-76
2021/01/27 01:11:26;;;;;;;66.70;35.65;;;;;;;-2.35;100.00;98538.47;2079373;28;20247;-75
2021/01/27 01:12:27;;;;;;;58.87;33.10;;;;;;;-2.32;100.00;98532.81;2079301;28;20231;-75
2021/01/27 01:13:30;;;;;;;64.38;34.38;;;;;;;-2.25;100.00;98539.75;2079431;28;20222;-75
2021/01/27 01:14:31;;;;;;;65.47;34.60;;;;;;;-2.27;100.00;98543.38;2079358;28;20216;-75
2021/01/27 01:15:32;;;;;;;70.45;35.83;;;;;;;-2.30;100.00;98538.59;2080104;28;20306;-75
2021/01/27 01:16:33;;;;;;;69.00;35.43;;;;;;;-2.28;100.00;98541.78;2080169;28;20223;-75
2021/01/27 01:17:34;;;;;;;63.33;34.35;;;;;;;-2.32;100.00;98532.81;2079354;28;20541;-75
2021/01/27 01:18:36;;;;;;;64.17;33.27;;;;;;;-2.29;100.00;98534.97;2079469;28;20215;-75
2021/01/27 01:19:36;;;;;;;61.72;33.65;;;;;;;-2.31;100.00;98536.22;2079481;28;20231;-74
2021/01/27 01:20:38;;;;;;;64.13;34.80;;;;;;;-2.30;100.00;98546.44;2079185;28;20227;-75
2021/01/27 01:21:40;;;;;;;59.70;33.88;;;;;;;-2.31;100.00;98538.84;2080047;28;20227;-75
2021/01/27 01:22:43;;;;;;;69.45;37.15;;;;;;;-2.38;100.00;98528.47;2080114;28;20230;-75
2021/01/27 01:23:43;;;;;;;56.70;33.42;;;;;;;-2.32;100.00;98534.63;2079508;28;20307;-75
2021/01/27 01:24:45;;;;;;;57.40;33.00;;;;;;;-2.27;100.00;98540.75;2080402;28;20233;-75
2021/01/27 01:25:47;;;;;;;59.63;33.70;;;;;;;-2.32;100.00;98524.19;2080998;28;20230;-75
2021/01/27 01:26:48;;;;;;;60.08;32.58;;;;;;;-2.30;100.00;98535.19;2081010;28;20310;-75
2021/01/27 01:27:49;;;;;;;56.20;33.75;;;;;;;-2.32;100.00;98535.44;2081030;28;20227;-75
2021/01/27 01:28:50;;;;;;;58.25;34.05;;;;;;;-2.25;100.00;98529.31;2080915;28;20265;-75
2021/01/27 01:29:51;;;;;;;56.35;32.33;;;;;;;-2.27;100.00;98532.91;2080921;28;20797;-75
2021/01/27 01:30:52;;;;;;;60.07;32.70;;;;;;;-2.30;100.00;98527.38;2072462;28;20582;-76
2021/01/27 01:31:53;;;;;;;62.17;32.17;;;;;;;-2.30;100.00;98524.75;2080967;28;20229;-74
2021/01/27 01:32:56;;;;;;;55.00;31.93;;;;;;;-2.28;100.00;98526.09;2080865;28;20234;-75
2021/01/27 01:33:57;;;;;;;57.45;31.92;;;;;;;-2.31;100.00;98531.78;2081109;28;20280;-76
2021/01/27 01:34:58;;;;;;;60.43;32.03;;;;;;;-2.29;100.00;98539.41;2080883;28;20694;-75
2021/01/27 01:36:00;;;;;;;54.35;30.75;;;;;;;-2.28;100.00;98531.34;2081262;28;20321;-74
2021/01/27 01:37:02;;;;;;;50.00;30.77;;;;;;;-2.31;100.00;98526.56;2081014;28;20216;-74
2021/01/27 01:38:04;;;;;;;57.38;32.78;;;;;;;-2.26;100.00;98538.94;2080989;28;20215;-75
2021/01/27 01:39:05;;;;;;;53.53;32.33;;;;;;;-2.19;100.00;98531.00;2081134;28;20231;-74
2021/01/27 01:40:07;;;;;;;60.00;31.80;;;;;;;-2.19;100.00;98536.22;2081857;28;20224;-75
2021/01/27 01:41:08;;;;;;;58.75;31.10;;;;;;;-2.14;100.00;98541.59;2079387;28;20258;-74
2021/01/27 01:42:09;;;;;;;56.40;32.07;;;;;;;-2.12;100.00;98540.31;2081486;28;20285;-75
2021/01/27 01:43:13;;;;;;;60.13;30.88;;;;;;;-2.07;100.00;98539.66;2080802;28;20721;-74
2021/01/27 01:44:15;;;;;;;56.67;32.67;;;;;;;-2.13;100.00;98538.75;2081022;28;20298;-75
2021/01/27 01:45:27;;;;;;;54.70;31.95;;;;;;;-2.04;100.00;98542.59;2080996;28;20693;-75
2021/01/27 01:46:29;;;;;;;54.28;30.90;;;;;;;-2.03;100.00;98540.78;2074717;28;20226;-75
2021/01/27 01:47:30;;;;;;;54.92;31.00;;;;;;;-2.08;100.00;98535.47;2078843;28;20258;-75
2021/01/27 01:48:34;;;;;;;54.03;31.13;;;;;;;-2.12;100.00;98523.84;2080953;28;20219;-75
2021/01/27 01:49:35;;;;;;;53.30;30.08;;;;;;;-2.01;100.00;98541.34;2081193;28;20298;-75
2021/01/27 01:50:36;;;;;;;54.33;30.10;;;;;;;-2.08;100.00;98519.78;2080796;28;20231;-75
2021/01/27 01:51:40;;;;;;;52.72;30.55;;;;;;;-2.01;100.00;98542.13;2074201;28;20270;-76
2021/01/27 01:52:43;;;;;;;57.90;31.13;;;;;;;-2.07;100.00;98534.44;2077718;28;22646;-75
2021/01/27 01:53:47;;;;;;;52.22;31.95;;;;;;;-2.10;100.00;98529.63;2079811;28;20231;-74
2021/01/27 01:54:51;;;;;;;50.22;30.45;;;;;;;-1.90;100.00;98542.38;2081026;28;20220;-75
2021/01/27 01:55:54;;;;;;;57.45;32.10;;;;;;;-2.00;100.00;98528.06;2079165;28;20306;-76
2021/01/27 01:56:57;;;;;;;60.08;31.38;;;;;;;-2.00;100.00;98537.72;2081482;28;20227;-75
2021/01/27 01:57:59;;;;;;;58.03;32.42;;;;;;;-1.96;100.00;98540.69;2081523;28;20232;-75
2021/01/27 01:59:02;;;;;;;55.67;32.00;;;;;;;-2.03;100.00;98540.78;2080708;28;20602;-75
2021/01/27 02:00:07;;;;;;;52.00;30.80;;;;;;;-2.08;100.00;98528.41;2080945;28;20289;-75
2021/01/27 02:01:13;;;;;;;51.58;30.52;;;;;;;-2.04;100.00;98532.16;2081360;28;20697;-75
2021/01/27 02:02:14;;;;;;;52.72;31.33;;;;;;;-2.09;100.00;98531.22;2081775;28;20219;-74
2021/01/27 02:03:15;;;;;;;49.03;31.43;;;;;;;-2.06;100.00;98538.63;2080831;28;20234;-76
2021/01/27 02:04:16;;;;;;;52.28;32.75;;;;;;;-2.06;100.00;98530.78;2072667;28;20615;-75
2021/01/27 02:05:19;;;;;;;52.88;30.95;;;;;;;-2.01;100.00;98536.13;2072839;28;20308;-75
2021/01/27 02:06:21;;;;;;;50.42;29.77;;;;;;;-2.07;100.00;98542.28;2080842;28;20302;-74
2021/01/27 02:07:22;;;;;;;54.53;31.60;;;;;;;-2.05;100.00;98529.78;2081259;28;20237;-76
2021/01/27 02:08:25;;;;;;;52.47;33.17;;;;;;;-2.04;100.00;98541.81;2080794;28;20579;-75
2021/01/27 02:09:26;;;;;;;50.70;34.90;;;;;;;-2.11;100.00;98536.69;2080936;28;20290;-76
2021/01/27 02:10:27;;;;;;;58.15;33.95;;;;;;;-2.06;100.00;98536.03;2081752;28;20307;-76
2021/01/27 02:11:53;;;;;;;48.38;32.50;;;;;;;-2.11;100.00;98533.28;2081583;28;20222;-76
2021/01/27 02:13:08;;;;;;;52.22;30.75;;;;;;;-2.12;100.00;98537.72;2081044;28;20655;-76
2021/01/27 02:14:18;;;;;;;42.00;27.50;;;;;;;-2.07;100.00;98543.06;2080452;28;20249;-74
2021/01/27 02:15:41;;;;;;;53.17;31.23;;;;;;;-2.07;100.00;98537.84;2073878;28;20640;-74
2021/01/27 02:16:45;;;;;;;51.78;30.52;;;;;;;-2.10;100.00;98532.25;2080658;28;20236;-74
2021/01/27 02:17:55;;;;;;;49.58;30.38;;;;;;;-2.14;100.00;98538.97;2081805;28;20681;-75
2021/01/27 02:19:26;;;;;;;48.95;29.98;;;;;;;-2.17;100.00;98531.56;2081299;28;20223;-74
2021/01/27 02:21:07;;;;;;;47.72;30.20;;;;;;;-2.18;100.00;98530.78;2079875;28;20326;-75
2021/01/27 02:22:42;;;;;;;52.97;29.20;;;;;;;-2.15;100.00;98529.53;2080429;28;20589;-74
2021/01/27 02:24:01;;;;;;;46.97;28.50;;;;;;;-2.14;100.00;98525.91;2066020;28;20754;-75
2021/01/27 02:25:26;;;;;;;48.45;29.17;;;;;;;-2.23;100.00;98516.81;2080092;28;20218;-75
2021/01/27 02:26:47;;;;;;;49.13;29.58;;;;;;;-2.15;100.00;98532.16;2077867;28;20230;-74
2021/01/27 02:27:50;;;;;;;45.35;30.13;;;;;;;-2.17;100.00;98521.13;2078576;28;20245;-74
2021/01/27 02:29:07;;;;;;;49.75;30.77;;;;;;;-2.42;100.00;98485.56;2080452;28;20273;-74
2021/01/27 02:30:24;;;;;;;45.58;29.65;;;;;;;-2.27;100.00;98524.28;2073996;28;20223;-76
2021/01/27 02:31:30;;;;;;;45.10;29.77;;;;;;;-2.25;100.00;98519.66;2066240;28;20802;-75
2021/01/27 02:32:58;;;;;;;50.75;29.92;;;;;;;-2.24;100.00;98521.25;2072502;28;20303;-75
2021/01/27 02:34:51;;;;;;;45.38;29.52;;;;;;;-2.27;100.00;98511.22;2071729;28;20815;-75
2021/01/27 02:35:56;;;;;;;49.05;30.48;;;;;;;-2.28;100.00;98514.88;2071657;28;20228;-76
2021/01/27 02:37:01;;;;;;;44.03;28.65;;;;;;;-2.22;100.00;98526.25;2073329;28;20231;-75
2021/01/27 02:38:05;;;;;;;51.83;29.45;;;;;;;-2.17;100.00;98521.13;2073238;28;20726;-74
2021/01/27 02:39:10;;;;;;;47.33;29.80;;;;;;;-2.22;100.00;98507.94;2073226;28;20228;-75
2021/01/27 02:40:19;;;;;;;40.28;27.13;;;;;;;-2.20;100.00;98524.97;2072751;28;20228;-74
2021/01/27 02:41:28;;;;;;;51.15;30.38;;;;;;;-2.17;100.00;98515.88;2073344;28;20228;-74
2021/01/27 02:42:33;;;;;;;40.10;28.08;;;;;;;-2.12;100.00;98524.66;2072607;28;20302;-74
2021/01/27 02:43:36;;;;;;;50.00;31.13;;;;;;;-2.14;100.00;98520.69;2073025;28;20231;-74
2021/01/27 02:44:42;;;;;;;44.85;28.85;;;;;;;-2.17;100.00;98528.94;2072876;28;20250;-76
2021/01/27 02:45:45;;;;;;;43.97;30.15;;;;;;;-2.19;100.00;98518.72;2073287;28;20227;-75
2021/01/27 02:46:51;;;;;;;45.65;30.42;;;;;;;-2.23;100.00;98522.03;2072294;28;20267;-75
2021/01/27 02:47:57;;;;;;;43.97;29.83;;;;;;;-2.28;100.00;98518.28;2072101;28;20228;-75
2021/01/27 02:49:02;;;;;;;41.38;29.67;;;;;;;-2.33;100.00;98509.53;2072332;28;20231;-74
2021/01/27 02:50:07;;;;;;;49.08;28.83;;;;;;;-2.28;100.00;98528.72;2072449;28;20224;-75
2021/01/27 02:51:14;;;;;;;44.17;29.20;;;;;;;-2.28;100.00;98525.31;2071766;28;20263;-75
2021/01/27 02:52:19;;;;;;;45.63;29.63;;;;;;;-2.31;100.00;98525.78;2072478;28;20220;-75
2021/01/27 02:53:21;;;;;;;43.17;28.25;;;;;;;-2.24;100.00;98534.31;2072310;28;20240;-75
2021/01/27 02:54:28;;;;;;;44.15;29.25;;;;;;;-2.21;100.00;98531.22;2072133;28;20228;-76
2021/01/27 02:55:32;;;;;;;42.95;29.45;;;;;;;-2.16;100.00;98530.56;2071907;28;20307;-75
2021/01/27 02:56:37;;;;;;;41.33;29.52;;;;;;;-2.24;100.00;98520.44;2072382;28;20307;-75
2021/01/27 02:57:42;;;;;;;42.35;30.35;;;;;;;-2.25;100.00;98526.69;2072428;28;20231;-74
2021/01/27 02:58:48;;;;;;;38.95;28.92;;;;;;;-2.30;100.00;98520.31;2073002;28;20686;-75
2021/01/27 02:59:53;;;;;;;47.60;30.48;;;;;;;-2.29;100.00;98528.94;2072972;28;20315;-75
2021/01/27 03:00:59;;;;;;;43.33;30.02;;;;;;;-2.28;100.00;98531.34;2071641;28;20219;-75
2021/01/27 03:02:05;;;;;;;40.95;28.00;;;;;;;-2.24;100.00;98525.69;2072450;28;20271;-75
2021/01/27 03:03:11;;;;;;;40.20;29.27;;;;;;;-2.27;100.00;98521.69;2072863;28;20270;-76
2021/01/27 03:04:15;;;;;;;39.72;27.27;;;;;;;-2.23;100.00;98533.28;2072508;28;20228;-74
2021/01/27 03:05:19;;;;;;;42.70;28.55;;;;;;;-2.23;100.00;98522.03;2072613;28;20220;-75
2021/01/27 03:06:21;;;;;;;43.35;28.13;;;;;;;-2.27;100.00;98512.03;2073030;28;20303;-75
2021/01/27 03:07:22;;;;;;;38.95;29.80;;;;;;;-2.17;100.00;98521.13;2072253;28;20312;-77
2021/01/27 03:08:25;;;;;;;49.90;29.85;;;;;;;-2.16;100.00;98517.50;2073006;28;20706;-74
2021/01/27 03:09:32;;;;;;;38.88;27.48;;;;;;;-2.15;100.00;98534.75;2072908;28;20231;-74
2021/01/27 03:10:38;;;;;;;39.33;28.20;;;;;;;-2.14;100.00;98524.09;2072302;28;20852;-74
2021/01/27 03:11:40;;;;;;;41.38;27.95;;;;;;;-2.15;100.00;98519.88;2071740;28;20320;-75
2021/01/27 03:12:41;;;;;;;43.75;28.55;;;;;;;-2.25;100.00;98505.81;2072642;28;20232;-74
2021/01/27 03:13:44;;;;;;;36.63;26.80;;;;;;;-2.27;100.00;98506.78;2072118;28;20699;-74
2021/01/27 03:14:46;;;;;;;39.40;27.20;;;;;;;-2.15;100.00;98513.88;2071775;28;20703;-74
2021/01/27 03:15:47;;;;;;;40.63;26.60;;;;;;;-2.19;100.00;98512.72;2072856;28;20244;-75
2021/01/27 03:16:54;;;;;;;35.70;25.80;;;;;;;-2.27;100.00;98509.41;2072740;28;20228;-74
2021/01/27 03:17:57;;;;;;;33.95;24.73;;;;;;;-2.16;100.00;98512.28;2071812;28;20278;-74
2021/01/27 03:19:02;;;;;;;40.05;26.42;;;;;;;-2.16;100.00;98517.50;2071899;28;20242;-74
2021/01/27 03:20:07;;;;;;;39.92;28.10;;;;;;;-2.16;100.00;98522.72;2072001;28;20216;-74
2021/01/27 03:21:13;;;;;;;41.50;27.25;;;;;;;-2.14;100.00;98515.44;2071857;28;20228;-75
2021/01/27 03:22:17;;;;;;;39.53;26.60;;;;;;;-2.10;100.00;98516.56;2072766;28;20278;-75
2021/01/27 03:23:23;;;;;;;41.30;27.33;;;;;;;-2.14;100.00;98510.22;2072959;28;20675;-75
2021/01/27 03:24:24;;;;;;;38.22;26.13;;;;;;;-2.15;100.00;98516.47;2072360;28;20220;-74
2021/01/27 03:25:29;;;;;;;37.08;26.23;;;;;;;-2.07;100.00;98522.16;2072677;28;20303;-75
2021/01/27 03:26:34;;;;;;;36.17;25.27;;;;;;;-2.01;100.00;98523.06;2071986;28;20307;-75
2021/01/27 03:27:40;;;;;;;37.55;26.83;;;;;;;-2.03;100.00;98515.44;2071919;28;20362;-74
2021/01/27 03:28:45;;;;;;;37.00;27.13;;;;;;;-2.12;100.00;98508.97;2078460;28;20306;-74
2021/01/27 03:29:48;;;;;;;37.20;25.45;;;;;;;-2.13;100.00;98507.38;2080291;28;20251;-75
2021/01/27 03:30:50;;;;;;;38.78;26.25;;;;;;;-2.15;100.00;98506.81;2080329;28;20222;-75
2021/01/27 03:31:52;;;;;;;37.75;26.52;;;;;;;-2.04;100.00;98524.31;2080116;28;20219;-75
2021/01/27 03:32:59;;;;;;;35.67;26.40;;;;;;;-2.04;100.00;98523.50;2079809;28;20229;-75
2021/01/27 03:34:03;;;;;;;37.28;26.20;;;;;;;-2.04;100.00;98515.66;2080086;28;20219;-75
2021/01/27 03:35:08;;;;;;;38.05;27.10;;;;;;;-2.03;100.00;98522.50;2080236;28;20310;-74
2021/01/27 03:36:12;;;;;;;40.17;28.80;;;;;;;-2.08;100.00;98520.56;2080404;28;20231;-75
2021/01/27 03:37:16;;;;;;;38.42;29.05;;;;;;;-2.07;100.00;98524.78;2080837;28;20242;-75
2021/01/27 03:38:21;;;;;;;37.50;27.15;;;;;;;-2.06;100.00;98517.72;2080046;28;20285;-74
2021/01/27 03:39:23;;;;;;;33.88;26.35;;;;;;;-2.17;100.00;98494.97;2079867;28;20315;-75
2021/01/27 03:40:24;;;;;;;38.70;27.85;;;;;;;-2.02;100.00;98513.63;2080819;28;20258;-75
2021/01/27 03:41:28;;;;;;;39.00;26.40;;;;;;;-2.02;100.00;98517.03;2080664;28;20701;-75
2021/01/27 03:42:33;;;;;;;39.05;26.08;;;;;;;-2.02;100.00;98521.47;2080051;28;20678;-74
2021/01/27 03:43:37;;;;;;;35.85;25.85;;;;;;;-2.06;100.00;98513.28;2080350;28;20224;-75
2021/01/27 03:44:43;;;;;;;39.45;26.85;;;;;;;-1.98;100.00;98517.38;2080516;28;20238;-75
2021/01/27 03:45:47;;;;;;;40.40;26.33;;;;;;;-2.02;100.00;98521.47;2080851;28;20707;-75
2021/01/27 03:46:54;;;;;;;39.72;27.00;;;;;;;-2.05;100.00;98519.31;2080750;28;20216;-75
2021/01/27 03:48:00;;;;;;;37.70;27.92;;;;;;;-2.03;100.00;98517.25;2080067;28;20223;-74
2021/01/27 03:49:06;;;;;;;39.60;27.23;;;;;;;-2.03;100.00;98522.50;2080968;28;20245;-74
2021/01/27 03:50:11;;;;;;;40.67;27.40;;;;;;;-1.97;100.00;98524.19;2079874;28;20227;-75
2021/01/27 03:51:13;;;;;;;35.55;27.15;;;;;;;-1.99;100.00;98518.41;2072244;28;20235;-74
2021/01/27 03:52:18;;;;;;;40.22;26.83;;;;;;;-2.05;100.00;98516.69;2071894;28;20220;-75
2021/01/27 03:53:19;;;;;;;39.50;27.40;;;;;;;-2.00;100.00;98527.25;2080029;28;20231;-75
2021/01/27 03:54:20;;;;;;;41.13;28.65;;;;;;;-2.00;100.00;98525.47;2080092;28;20709;-75
2021/01/27 03:55:25;;;;;;;38.77;26.90;;;;;;;-2.00;100.00;98522.84;2079988;28;20633;-74
2021/01/27 03:56:30;;;;;;;36.13;26.40;;;;;;;-1.95;100.00;98526.59;2080144;28;20231;-75
2021/01/27 03:57:35;;;;;;;39.78;27.35;;;;;;;-1.98;100.00;98525.22;2080617;28;20238;-75
2021/01/27 03:58:39;;;;;;;36.33;25.65;;;;;;;-2.03;100.00;98522.50;2080816;28;20314;-75
2021/01/27 03:59:40;;;;;;;37.70;27.10;;;;;;;-1.96;100.00;98525.78;2080364;28;20310;-75
2021/01/27 04:00:41;;;;;;;36.45;26.63;;;;;;;-1.97;100.00;98521.59;2080747;28;20238;-75
2021/01/27 04:01:51;;;;;;;34.60;26.20;;;;;;;-2.05;100.00;98525.34;2080151;28;20226;-75
2021/01/27 04:03:09;;;;;;;41.03;28.85;;;;;;;-2.03;100.00;98525.09;2096515;28;20224;-74
2021/01/27 04:04:10;;;;;;;44.08;28.73;;;;;;;-2.02;100.00;98521.47;2079242;28;20262;-75
2021/01/27 04:05:12;;;;;;;38.33;28.00;;;;;;;-1.96;100.00;98531.03;2079938;28;20803;-74
2021/01/27 04:06:13;;;;;;;36.40;28.45;;;;;;;-1.91;100.00;98528.53;2079916;28;20250;-75
2021/01/27 04:07:14;;;;;;;39.03;28.38;;;;;;;-1.92;100.00;98526.13;2071663;28;20244;-75
2021/01/27 04:08:16;;;;;;;37.20;26.87;;;;;;;-1.96;100.00;98525.78;2079922;28;20227;-75
2021/01/27 04:09:18;;;;;;;35.58;27.40;;;;;;;-1.92;100.00;98526.91;2079807;28;20688;-75
2021/01/27 04:10:19;;;;;;;39.63;27.67;;;;;;;-2.00;100.00;98512.38;2072025;28;20713;-75
2021/01/27 04:11:20;;;;;;;37.70;27.92;;;;;;;-1.92;100.00;98518.28;2079727;28;20231;-75
2021/01/27 04:12:21;;;;;;;36.47;28.55;;;;;;;-1.94;100.00;98520.31;2071644;28;20231;-75
2021/01/27 04:13:22;;;;;;;36.27;27.27;;;;;;;-1.90;100.00;98516.25;2079545;28;20239;-75
2021/01/27 04:14:23;;;;;;;38.35;26.83;;;;;;;-1.94;100.00;98515.09;2080586;28;20233;-75
2021/01/27 04:15:25;;;;;;;36.07;27.73;;;;;;;-1.95;100.00;98513.50;2079765;28;20232;-75
2021/01/27 04:16:26;;;;;;;40.97;28.05;;;;;;;-1.96;100.00;98515.34;2071758;28;20547;-75
2021/01/27 04:17:30;;;;;;;42.97;28.92;;;;;;;-1.96;100.00;98522.38;2071882;28;20294;-75
2021/01/27 04:18:31;;;;;;;40.58;28.50;;;;;;;-1.92;100.00;98519.06;2080027;28;20219;-75
2021/01/27 04:19:32;;;;;;;40.05;28.48;;;;;;;-1.89;100.00;98516.00;2079892;28;20701;-75
2021/01/27 04:20:33;;;;;;;36.03;27.77;;;;;;;-1.93;100.00;98519.31;2079982;28;20563;-74
2021/01/27 04:21:34;;;;;;;40.05;26.38;;;;;;;-1.98;100.00;98513.97;2080637;28;20219;-75
2021/01/27 04:22:36;;;;;;;37.60;27.83;;;;;;;-1.91;100.00;98519.88;2080680;28;20716;-75
2021/01/27 04:23:37;;;;;;;42.90;27.98;;;;;;;-1.87;100.00;98527.03;2080196;28;20231;-76
2021/01/27 04:24:39;;;;;;;31.70;27.27;;;;;;;-1.94;100.00;98525.56;2080510;28;20227;-76
2021/01/27 04:25:39;;;;;;;39.47;29.45;;;;;;;-1.96;100.00;98523.19;2080555;28;20231;-76
2021/01/27 04:26:41;;;;;;;36.53;28.63;;;;;;;-1.94;100.00;98522.94;2080580;28;20227;-75
2021/01/27 04:27:42;;;;;;;39.33;28.30;;;;;;;-1.94;100.00;98520.31;2080606;28;20245;-75
2021/01/27 04:28:43;;;;;;;42.00;27.83;;;;;;;-1.96;100.00;98528.41;2079551;28;20226;-76
2021/01/27 04:29:44;;;;;;;39.80;26.70;;;;;;;-1.91;100.00;98525.09;2079565;28;20234;-75
2021/01/27 04:30:45;;;;;;;40.10;27.03;;;;;;;-1.96;100.00;98523.19;2079803;28;20227;-75
2021/01/27 04:31:46;;;;;;;42.50;27.92;;;;;;;-1.97;100.00;98521.59;2080462;28;20224;-75
2021/01/27 04:32:47;;;;;;;41.50;27.93;;;;;;;-1.90;100.00;98521.47;2079543;28;20223;-75
2021/01/27 04:33:48;;;;;;;38.45;27.15;;;;;;;-1.96;100.00;98512.72;2079360;28;20227;-75
2021/01/27 04:34:50;;;;;;;37.77;27.03;;;;;;;-1.96;100.00;98510.09;2079883;28;20243;-75
2021/01/27 04:35:50;;;;;;;42.40;27.88;;;;;;;-1.96;100.00;98515.34;2079678;28;20285;-76
2021/01/27 04:36:52;;;;;;;37.10;26.80;;;;;;;-1.89;100.00;98516.00;2079658;28;20227;-75
2021/01/27 04:37:53;;;;;;;36.20;26.48;;;;;;;-1.98;100.00;98500.91;2073208;28;20691;-76
2021/01/27 04:38:55;;;;;;;36.20;26.90;;;;;;;-2.01;100.00;98505.53;2093820;28;20304;-76
2021/01/27 04:39:56;;;;;;;41.88;27.63;;;;;;;-1.95;100.00;98508.28;2087856;28;20257;-76
2021/01/27 04:40:58;;;;;;;38.83;27.90;;;;;;;-1.95;100.00;98503.84;2079766;28;20234;-76
2021/01/27 04:41:59;;;;;;;39.78;27.67;;;;;;;-1.94;100.00;98507.25;2088167;28;20272;-76
2021/01/27 04:43:02;;;;;;;41.13;28.42;;;;;;;-1.96;100.00;98512.72;2079866;28;20770;-76
2021/01/27 04:44:03;;;;;;;39.20;27.23;;;;;;;-1.96;100.00;98509.31;2079730;28;20219;-76
2021/01/27 04:45:06;;;;;;;40.95;27.70;;;;;;;-1.98;100.00;98506.94;2080537;28;20718;-76
2021/01/27 04:46:11;;;;;;;37.75;26.52;;;;;;;-2.09;100.00;98498.03;2078892;28;20722;-76
2021/01/27 04:47:17;;;;;;;37.08;26.17;;;;;;;-1.94;100.00;98502.81;2072300;28;20228;-76
2021/01/27 04:48:24;;;;;;;37.92;27.80;;;;;;;-2.06;100.00;98495.00;2080525;28;20223;-76
2021/01/27 04:49:27;;;;;;;39.60;27.52;;;;;;;-2.00;100.00;98501.94;2095959;28;20239;-76
2021/01/27 04:50:31;;;;;;;36.78;27.17;;;;;;;-2.04;100.00;98502.59;2095620;28;20329;-76